createdAt,value
2019-03-20T00:00:20.003Z,2.27
2019-03-20T00:01:20.105Z,2.38
2019-03-20T00:02:19.705Z,2.20
2019-03-20T00:03:19.704Z,2.20
2019-03-20T00:04:19.055Z,2.15
2019-03-20T00:05:19.046Z,2.19
2019-03-20T00:06:19.038Z,2.28
2019-03-20T00:07:19.450Z,2.28
2019-03-20T00:08:19.704Z,2.34
2019-03-20T00:09:19.004Z,2.20
2019-03-20T00:10:18.995Z,2.26
2019-03-20T00:11:19.709Z,2.10
2019-03-20T00:12:18.971Z,2.02
2019-03-20T00:13:19.186Z,1.98
2019-03-20T00:14:19.239Z,1.89
2019-03-20T00:15:18.939Z,1.91
2019-03-20T00:16:18.934Z,1.89
2019-03-20T00:17:18.923Z,1.93
2019-03-20T00:18:18.913Z,2.08
2019-03-20T00:19:19.025Z,1.98
2019-03-20T00:20:18.895Z,2.04
2019-03-20T00:21:18.878Z,2.06
2019-03-20T00:22:18.873Z,2.12
2019-03-20T00:23:18.859Z,2.13
2019-03-20T00:24:18.849Z,2.19
2019-03-20T00:25:18.964Z,2.12
2019-03-20T00:26:18.829Z,2.02
2019-03-20T00:27:19.095Z,2.06
2019-03-20T00:28:18.806Z,2.06
2019-03-20T00:29:18.795Z,1.99
2019-03-20T00:30:18.799Z,2.10
2019-03-20T00:31:18.908Z,2.17
2019-03-20T00:32:18.782Z,2.16
2019-03-20T00:33:18.757Z,2.20
2019-03-20T00:34:19.027Z,2.23
2019-03-20T00:35:18.741Z,2.34
2019-03-20T00:36:18.725Z,2.30
2019-03-20T00:37:18.840Z,2.31
2019-03-20T00:38:18.704Z,2.38
2019-03-20T00:39:18.695Z,2.28
2019-03-20T00:40:18.684Z,2.31
2019-03-20T00:41:18.672Z,2.35
2019-03-20T00:42:18.680Z,2.38
2019-03-20T00:43:18.692Z,2.38
2019-03-20T00:44:18.650Z,2.38
2019-03-20T00:45:18.631Z,2.34
2019-03-20T00:46:18.620Z,2.31
2019-03-20T00:47:18.895Z,2.22
2019-03-20T00:48:18.604Z,2.17
2019-03-20T00:49:18.651Z,2.12
2019-03-20T00:50:18.579Z,2.15
2019-03-20T00:51:18.569Z,2.16
2019-03-20T00:52:18.560Z,2.13
2019-03-20T00:53:18.550Z,2.15
2019-03-20T00:54:18.538Z,2.10
2019-03-20T00:55:18.568Z,2.19
2019-03-20T00:56:18.520Z,2.19
2019-03-20T00:57:18.516Z,2.20
2019-03-20T00:58:18.498Z,2.26
2019-03-20T00:59:18.767Z,2.20
2019-03-20T01:00:18.477Z,2.31
2019-03-20T01:01:18.507Z,2.22
2019-03-20T01:02:18.458Z,2.26
2019-03-20T01:03:18.451Z,2.22
2019-03-20T01:04:18.438Z,2.19
2019-03-20T01:05:18.708Z,2.23
2019-03-20T01:06:18.416Z,2.19
2019-03-20T01:07:18.479Z,2.26
2019-03-20T01:08:18.394Z,2.15
2019-03-20T01:09:18.384Z,2.15
2019-03-20T01:10:18.422Z,2.17
2019-03-20T01:11:18.367Z,2.28
2019-03-20T01:12:18.354Z,2.20
2019-03-20T01:13:18.382Z,2.10
2019-03-20T01:14:18.337Z,2.12
2019-03-20T01:15:18.325Z,2.13
2019-03-20T01:16:18.312Z,2.12
2019-03-20T01:17:18.587Z,2.01
2019-03-20T01:18:18.292Z,1.94
2019-03-20T01:19:18.327Z,1.98
2019-03-20T01:20:18.273Z,1.98
2019-03-20T01:21:18.262Z,1.87
2019-03-20T01:22:18.250Z,1.80
2019-03-20T01:23:18.240Z,1.87
2019-03-20T01:24:18.241Z,1.91
2019-03-20T01:25:18.283Z,1.93
2019-03-20T01:26:18.210Z,1.93
2019-03-20T01:27:18.199Z,1.94
2019-03-20T01:28:18.188Z,1.99
2019-03-20T01:29:18.179Z,1.98
2019-03-20T01:30:18.450Z,2.02
2019-03-20T01:31:18.228Z,1.98
2019-03-20T01:32:18.152Z,2.02
2019-03-20T01:33:18.142Z,1.97
2019-03-20T01:34:18.127Z,1.99
2019-03-20T01:35:23.809Z,1.98
2019-03-20T01:36:19.145Z,2.04
2019-03-20T01:37:18.378Z,1.99
2019-03-20T01:38:18.087Z,2.09
2019-03-20T01:39:18.076Z,2.01
2019-03-20T01:40:18.071Z,2.02
2019-03-20T01:41:18.059Z,2.09
2019-03-20T01:42:18.361Z,2.08
2019-03-20T01:43:18.692Z,2.13
2019-03-20T01:44:19.333Z,2.15
2019-03-20T01:45:18.017Z,2.06
2019-03-20T01:46:18.011Z,2.02
2019-03-20T01:47:17.994Z,2.02
2019-03-20T01:48:18.024Z,2.02
2019-03-20T01:49:17.974Z,2.04
2019-03-20T01:50:17.968Z,2.02
2019-03-20T01:51:18.247Z,1.97
2019-03-20T01:52:17.942Z,1.99
2019-03-20T01:53:17.931Z,1.89
2019-03-20T01:54:17.958Z,1.93
2019-03-20T01:55:17.912Z,1.94
2019-03-20T01:56:17.901Z,1.97
2019-03-20T01:57:17.934Z,2.02
2019-03-20T01:58:18.197Z,1.97
2019-03-20T01:59:17.871Z,1.99
2019-03-20T02:00:18.329Z,1.85
2019-03-20T02:01:17.905Z,1.89
2019-03-20T02:02:17.881Z,1.87
2019-03-20T02:03:17.865Z,1.83
2019-03-20T02:04:17.826Z,1.91
2019-03-20T02:05:18.092Z,1.97
2019-03-20T02:06:17.883Z,1.80
2019-03-20T02:07:17.791Z,1.90
2019-03-20T02:08:17.778Z,1.83
2019-03-20T02:09:17.768Z,1.85
2019-03-20T02:10:17.756Z,1.82
2019-03-20T02:11:17.746Z,1.85
2019-03-20T02:12:18.084Z,1.83
2019-03-20T02:13:17.727Z,1.87
2019-03-20T02:14:17.716Z,1.90
2019-03-20T02:15:17.710Z,1.93
2019-03-20T02:16:17.696Z,1.85
2019-03-20T02:17:17.685Z,1.90
2019-03-20T02:18:17.742Z,1.90
2019-03-20T02:19:18.645Z,1.97
2019-03-20T02:20:17.659Z,1.93
2019-03-20T02:21:17.658Z,1.90
2019-03-20T02:22:17.641Z,1.91
2019-03-20T02:23:17.626Z,1.89
2019-03-20T02:24:17.658Z,1.93
2019-03-20T02:25:17.600Z,1.91
2019-03-20T02:26:17.867Z,1.91
2019-03-20T02:27:17.579Z,1.91
2019-03-20T02:28:17.572Z,1.91
2019-03-20T02:29:17.578Z,1.90
2019-03-20T02:30:17.593Z,1.89
2019-03-20T02:31:17.538Z,1.90
2019-03-20T02:32:17.528Z,1.94
2019-03-20T02:33:17.796Z,1.94
2019-03-20T02:34:17.517Z,1.83
2019-03-20T02:35:17.520Z,1.91
2019-03-20T02:36:17.553Z,1.89
2019-03-20T02:37:17.474Z,1.85
2019-03-20T02:38:17.465Z,1.79
2019-03-20T02:39:17.461Z,1.76
2019-03-20T02:40:17.445Z,1.76
2019-03-20T02:41:17.447Z,1.68
2019-03-20T02:42:17.464Z,1.73
2019-03-20T02:43:17.416Z,1.71
2019-03-20T02:44:17.408Z,1.69
2019-03-20T02:45:17.401Z,1.72
2019-03-20T02:46:17.662Z,1.72
2019-03-20T02:47:17.372Z,1.68
2019-03-20T02:48:17.402Z,1.73
2019-03-20T02:49:17.352Z,1.73
2019-03-20T02:50:17.352Z,1.71
2019-03-20T02:51:17.337Z,1.73
2019-03-20T02:52:17.625Z,1.78
2019-03-20T02:53:17.327Z,1.76
2019-03-20T02:54:17.352Z,1.76
2019-03-20T02:55:17.288Z,1.75
2019-03-20T02:56:17.277Z,1.76
2019-03-20T02:57:17.562Z,1.78
2019-03-20T02:58:17.542Z,1.78
2019-03-20T02:59:17.253Z,1.76
2019-03-20T03:01:40.282Z,1.87
2019-03-20T03:02:39.870Z,1.89
2019-03-20T03:03:39.880Z,1.82
2019-03-20T03:04:39.861Z,1.80
2019-03-20T03:05:39.843Z,1.75
2019-03-20T03:06:39.828Z,1.78
2019-03-20T03:07:40.224Z,1.83
2019-03-20T03:08:39.808Z,1.78
2019-03-20T03:09:39.797Z,1.83
2019-03-20T03:10:39.796Z,1.75
2019-03-20T03:11:39.791Z,1.85
2019-03-20T03:12:39.787Z,1.78
2019-03-20T03:13:40.174Z,1.72
2019-03-20T03:14:40.050Z,1.61
2019-03-20T03:15:39.750Z,1.76
2019-03-20T03:16:39.729Z,1.72
2019-03-20T03:17:39.725Z,1.47
2019-03-20T03:18:39.721Z,1.57
2019-03-20T03:19:39.839Z,1.52
2019-03-20T03:20:39.688Z,1.46
2019-03-20T03:21:39.991Z,1.43
2019-03-20T03:22:39.673Z,1.37
2019-03-20T03:23:39.657Z,1.44
2019-03-20T03:24:39.648Z,1.42
2019-03-20T03:25:39.758Z,1.43
2019-03-20T03:26:39.625Z,1.43
2019-03-20T03:27:39.627Z,1.43
2019-03-20T03:28:39.905Z,1.50
2019-03-20T03:29:39.594Z,1.39
2019-03-20T03:30:39.586Z,1.51
2019-03-20T03:31:39.729Z,1.40
2019-03-20T03:32:39.568Z,1.43
2019-03-20T03:33:39.555Z,1.42
2019-03-20T03:34:39.547Z,1.40
2019-03-20T03:35:39.828Z,1.43
2019-03-20T03:36:39.532Z,1.40
2019-03-20T03:37:39.626Z,1.39
2019-03-20T03:38:39.503Z,1.55
2019-03-20T03:39:39.493Z,1.50
2019-03-20T03:40:39.489Z,1.47
2019-03-20T03:41:39.507Z,1.57
2019-03-20T03:42:39.745Z,1.54
2019-03-20T03:43:39.497Z,1.54
2019-03-20T03:44:39.454Z,1.55
2019-03-20T03:45:39.440Z,1.57
2019-03-20T03:46:39.421Z,1.54
2019-03-20T03:47:39.418Z,1.60
2019-03-20T03:48:39.398Z,1.58
2019-03-20T03:49:39.720Z,1.50
2019-03-20T03:50:39.382Z,1.44
2019-03-20T03:51:39.371Z,1.47
2019-03-20T03:52:39.370Z,1.60
2019-03-20T03:53:39.378Z,1.50
2019-03-20T03:54:39.351Z,1.62
2019-03-20T03:55:39.683Z,1.57
2019-03-20T03:56:39.617Z,1.61
2019-03-20T03:57:39.467Z,1.58
2019-03-20T03:58:39.308Z,1.47
2019-03-20T03:59:39.285Z,1.47
2019-03-20T04:00:39.276Z,1.44
2019-03-20T04:01:39.407Z,1.60
2019-03-20T04:02:39.254Z,1.57
2019-03-20T04:03:39.734Z,1.58
2019-03-20T04:04:39.238Z,1.55
2019-03-20T04:05:39.229Z,1.62
2019-03-20T04:06:39.212Z,1.60
2019-03-20T04:07:39.284Z,1.68
2019-03-20T04:08:39.195Z,1.79
2019-03-20T04:09:39.184Z,1.65
2019-03-20T04:10:39.465Z,1.68
2019-03-20T04:11:39.167Z,1.68
2019-03-20T04:12:39.163Z,1.68
2019-03-20T04:13:39.430Z,1.57
2019-03-20T04:14:39.162Z,1.60
2019-03-20T04:15:39.129Z,1.57
2019-03-20T04:16:39.135Z,1.55
2019-03-20T04:17:39.397Z,1.60
2019-03-20T04:18:39.090Z,1.64
2019-03-20T04:19:39.115Z,1.54
2019-03-20T04:20:39.075Z,1.51
2019-03-20T04:21:39.058Z,1.61
2019-03-20T04:22:39.048Z,1.57
2019-03-20T04:23:39.040Z,1.55
2019-03-20T04:24:39.481Z,1.52
2019-03-20T04:25:39.057Z,1.68
2019-03-20T04:26:39.018Z,1.58
2019-03-20T04:27:39.009Z,1.69
2019-03-20T04:28:38.989Z,1.69
2019-03-20T04:29:38.979Z,1.78
2019-03-20T04:30:38.966Z,1.78
2019-03-20T04:31:39.931Z,1.78
2019-03-20T04:32:38.957Z,1.72
2019-03-20T04:33:39.640Z,1.76
2019-03-20T04:34:38.924Z,1.79
2019-03-20T04:35:38.925Z,1.76
2019-03-20T04:36:47.775Z,1.75
2019-03-20T04:37:40.013Z,1.75
2019-03-20T04:38:38.890Z,1.79
2019-03-20T04:39:38.876Z,1.80
2019-03-20T04:40:38.867Z,1.76
2019-03-20T04:41:38.854Z,1.85
2019-03-20T04:42:38.841Z,1.87
2019-03-20T04:43:39.253Z,1.89
2019-03-20T04:44:38.839Z,1.89
2019-03-20T04:45:38.811Z,1.89
2019-03-20T04:46:38.801Z,1.80
2019-03-20T04:47:38.789Z,1.80
2019-03-20T04:48:38.783Z,1.78
2019-03-20T04:49:39.460Z,1.78
2019-03-20T04:50:38.757Z,1.68
2019-03-20T04:51:38.775Z,1.68
2019-03-20T04:52:38.737Z,1.64
2019-03-20T04:53:38.750Z,1.72
2019-03-20T04:54:38.716Z,1.65
2019-03-20T04:55:38.826Z,1.76
2019-03-20T04:56:38.708Z,1.75
2019-03-20T04:57:38.735Z,1.78
2019-03-20T04:58:38.674Z,1.73
2019-03-20T04:59:38.664Z,1.75
2019-03-20T05:00:38.664Z,1.76
2019-03-20T05:01:38.763Z,1.71
2019-03-20T05:02:38.635Z,1.75
2019-03-20T05:03:38.625Z,1.76
2019-03-20T05:04:38.619Z,1.73
2019-03-20T05:05:38.605Z,1.83
2019-03-20T05:06:38.591Z,1.89
2019-03-20T05:07:39.273Z,1.94
2019-03-20T05:08:38.571Z,1.93
2019-03-20T05:09:38.577Z,1.99
2019-03-20T05:10:38.555Z,1.99
2019-03-20T05:11:38.539Z,2.02
2019-03-20T05:12:38.529Z,1.97
2019-03-20T05:13:38.643Z,1.97
2019-03-20T05:14:38.935Z,1.97
2019-03-20T05:15:38.502Z,1.85
2019-03-20T05:16:38.494Z,1.85
2019-03-20T05:17:38.478Z,1.94
2019-03-20T05:18:39.078Z,1.94
2019-03-20T05:19:38.519Z,1.93
2019-03-20T05:20:38.454Z,1.97
2019-03-20T05:21:38.724Z,2.01
2019-03-20T05:22:38.426Z,1.98
2019-03-20T05:23:38.418Z,2.01
2019-03-20T05:24:38.407Z,1.97
2019-03-20T05:25:38.471Z,2.04
2019-03-20T05:26:38.385Z,2.04
2019-03-20T05:27:38.377Z,2.02
2019-03-20T05:28:38.665Z,1.98
2019-03-20T05:29:38.352Z,2.02
2019-03-20T05:30:38.344Z,1.98
2019-03-20T05:31:38.393Z,1.97
2019-03-20T05:32:38.324Z,1.93
2019-03-20T05:33:38.317Z,1.98
2019-03-20T05:34:38.302Z,1.89
2019-03-20T05:35:38.570Z,1.94
2019-03-20T05:36:38.296Z,1.89
2019-03-20T05:37:38.314Z,1.87
2019-03-20T05:38:38.261Z,1.75
2019-03-20T05:39:38.253Z,1.80
2019-03-20T05:40:38.239Z,1.82
2019-03-20T05:41:38.249Z,1.79
2019-03-20T05:42:38.636Z,1.71
2019-03-20T05:43:38.289Z,1.79
2019-03-20T05:44:38.205Z,1.78
2019-03-20T05:45:38.193Z,1.79
2019-03-20T05:46:38.177Z,1.83
2019-03-20T05:47:38.232Z,1.83
2019-03-20T05:48:38.233Z,1.79
2019-03-20T05:49:38.625Z,1.76
2019-03-20T05:50:38.187Z,1.80
2019-03-20T05:51:38.161Z,1.78
2019-03-20T05:52:38.119Z,1.82
2019-03-20T05:53:38.120Z,1.78
2019-03-20T05:54:38.132Z,1.79
2019-03-20T05:55:38.215Z,1.71
2019-03-20T05:56:38.554Z,1.73
2019-03-20T05:57:38.071Z,1.79
2019-03-20T05:58:38.058Z,1.83
2019-03-20T05:59:38.043Z,1.83
2019-03-20T06:00:38.033Z,1.75
2019-03-20T06:01:38.103Z,1.75
2019-03-20T06:02:38.029Z,1.75
2019-03-20T06:03:38.413Z,1.89
2019-03-20T06:04:38.006Z,1.82
2019-03-20T06:05:37.981Z,1.89
2019-03-20T06:06:38.641Z,1.91
2019-03-20T06:07:38.008Z,1.90
2019-03-20T06:08:37.950Z,1.83
2019-03-20T06:09:37.949Z,1.93
2019-03-20T06:10:38.454Z,1.89
2019-03-20T06:11:37.924Z,1.75
2019-03-20T06:12:37.908Z,1.90
2019-03-20T06:13:37.943Z,1.91
2019-03-20T06:14:38.570Z,2.01
2019-03-20T06:15:37.894Z,2.06
2019-03-20T06:16:37.939Z,1.98
2019-03-20T06:17:38.356Z,2.10
2019-03-20T06:18:37.880Z,2.16
2019-03-20T06:19:37.928Z,2.13
2019-03-20T06:20:37.923Z,2.15
2019-03-20T06:21:37.832Z,2.20
2019-03-20T06:22:37.805Z,2.31
2019-03-20T06:23:37.804Z,2.30
2019-03-20T06:24:38.080Z,2.37
2019-03-20T06:25:37.840Z,2.51
2019-03-20T06:26:37.917Z,2.52
2019-03-20T06:27:37.760Z,2.48
2019-03-20T06:28:37.774Z,2.56
2019-03-20T06:29:37.746Z,2.74
2019-03-20T06:30:37.732Z,2.79
2019-03-20T06:31:37.782Z,2.97
2019-03-20T06:32:37.707Z,3.03
2019-03-20T06:33:37.698Z,3.16
2019-03-20T06:34:37.688Z,3.28
2019-03-20T06:35:37.703Z,3.60
2019-03-20T06:36:37.713Z,3.64
2019-03-20T06:37:37.733Z,3.80
2019-03-20T06:38:37.654Z,3.94
2019-03-20T06:39:37.638Z,4.10
2019-03-20T06:40:37.667Z,4.28
2019-03-20T06:41:39.076Z,4.50
2019-03-20T06:42:37.760Z,4.67
2019-03-20T06:43:39.687Z,4.84
2019-03-20T06:44:37.606Z,5.01
2019-03-20T06:45:37.588Z,5.17
2019-03-20T06:46:37.575Z,5.49
2019-03-20T06:47:37.568Z,5.82
2019-03-20T06:48:37.574Z,6.19
2019-03-20T06:49:37.572Z,6.50
2019-03-20T06:50:37.522Z,6.32
2019-03-20T06:51:37.526Z,6.28
2019-03-20T06:52:37.508Z,6.44
2019-03-20T06:53:37.490Z,6.62
2019-03-20T06:54:37.478Z,6.71
2019-03-20T06:55:37.861Z,6.72
2019-03-20T06:56:37.469Z,6.94
2019-03-20T06:57:37.456Z,6.90
2019-03-20T06:58:37.435Z,7.08
2019-03-20T06:59:37.434Z,6.94
2019-03-20T07:00:37.420Z,7.08
2019-03-20T07:01:37.720Z,7.05
2019-03-20T07:02:37.393Z,7.12
2019-03-20T07:03:37.387Z,7.22
2019-03-20T07:04:37.377Z,7.52
2019-03-20T07:05:37.423Z,7.97
2019-03-20T07:06:37.357Z,8.26
2019-03-20T07:07:44.003Z,8.63
2019-03-20T07:08:38.847Z,9.06
2019-03-20T07:09:37.328Z,9.45
2019-03-20T07:10:37.309Z,9.30
2019-03-20T07:11:37.305Z,8.54
2019-03-20T07:12:37.290Z,7.59
2019-03-20T07:13:37.372Z,7.15
2019-03-20T07:14:37.270Z,7.31
2019-03-20T07:15:37.560Z,7.85
2019-03-20T07:16:37.256Z,8.11
2019-03-20T07:17:37.255Z,8.33
2019-03-20T07:18:37.226Z,8.36
2019-03-20T07:19:37.266Z,8.66
2019-03-20T07:20:37.214Z,8.69
2019-03-20T07:21:37.319Z,8.81
2019-03-20T07:22:37.666Z,9.15
2019-03-20T07:23:37.372Z,9.10
2019-03-20T07:24:37.173Z,9.20
2019-03-20T07:25:37.206Z,9.31
2019-03-20T07:26:37.146Z,9.31
2019-03-20T07:27:37.135Z,9.10
2019-03-20T07:28:37.130Z,8.99
2019-03-20T07:29:37.158Z,9.15
2019-03-20T07:30:37.131Z,9.39
2019-03-20T07:31:37.379Z,9.40
2019-03-20T07:32:37.132Z,9.88
2019-03-20T07:33:37.208Z,10.01
2019-03-20T07:34:37.195Z,10.37
2019-03-20T07:35:37.135Z,10.17
2019-03-20T07:36:37.053Z,10.22
2019-03-20T07:37:37.071Z,10.00
2019-03-20T07:38:37.031Z,10.12
2019-03-20T07:39:37.081Z,10.36
2019-03-20T07:40:37.068Z,11.02
2019-03-20T07:41:37.455Z,11.06
2019-03-20T07:42:37.011Z,11.43
2019-03-20T07:43:37.007Z,11.43
2019-03-20T07:44:37.020Z,11.21
2019-03-20T07:45:36.954Z,11.49
2019-03-20T07:46:37.662Z,11.68
2019-03-20T07:47:36.925Z,11.80
2019-03-20T07:48:36.957Z,12.57
2019-03-20T07:49:36.994Z,12.77
2019-03-20T07:50:36.923Z,13.22
2019-03-20T07:51:36.884Z,13.43
2019-03-20T07:52:36.874Z,13.43
2019-03-20T07:53:37.196Z,13.46
2019-03-20T07:54:36.851Z,13.79
2019-03-20T07:55:36.891Z,13.98
2019-03-20T07:56:36.920Z,13.47
2019-03-20T07:57:36.861Z,13.49
2019-03-20T07:58:36.809Z,13.24
2019-03-20T07:59:36.800Z,13.61
2019-03-20T08:00:37.550Z,14.14
2019-03-20T08:01:36.818Z,14.21
2019-03-20T08:02:36.785Z,14.10
2019-03-20T08:03:36.905Z,13.63
2019-03-20T08:04:36.747Z,14.19
2019-03-20T08:05:37.061Z,14.24
2019-03-20T08:06:36.743Z,14.54
2019-03-20T08:07:36.766Z,14.78
2019-03-20T08:08:36.778Z,14.69
2019-03-20T08:09:36.905Z,14.68
2019-03-20T08:10:36.689Z,14.28
2019-03-20T08:11:36.678Z,14.62
2019-03-20T08:12:37.066Z,15.13
2019-03-20T08:13:36.805Z,15.21
2019-03-20T08:14:36.650Z,15.43
2019-03-20T08:15:36.628Z,15.60
2019-03-20T08:16:36.620Z,15.09
2019-03-20T08:17:36.620Z,14.72
2019-03-20T08:18:36.600Z,14.88
2019-03-20T08:19:36.628Z,15.45
2019-03-20T08:20:36.582Z,16.18
2019-03-20T08:21:36.569Z,16.58
2019-03-20T08:22:36.575Z,17.32
2019-03-20T08:23:36.544Z,16.74
2019-03-20T08:24:36.544Z,16.90
2019-03-20T08:25:37.330Z,17.29
2019-03-20T08:26:36.512Z,16.86
2019-03-20T08:27:36.513Z,16.41
2019-03-20T08:28:36.489Z,17.03
2019-03-20T08:29:36.488Z,17.40
2019-03-20T08:30:36.478Z,17.38
2019-03-20T08:31:36.896Z,17.38
2019-03-20T08:32:36.449Z,18.40
2019-03-20T08:33:36.442Z,19.38
2019-03-20T08:34:36.427Z,19.83
2019-03-20T08:35:36.421Z,19.66
2019-03-20T08:36:36.406Z,19.55
2019-03-20T08:37:36.449Z,19.65
2019-03-20T08:38:37.556Z,19.65
2019-03-20T08:39:36.521Z,19.39
2019-03-20T08:40:36.484Z,18.65
2019-03-20T08:41:36.354Z,18.06
2019-03-20T08:42:36.349Z,17.79
2019-03-20T08:43:36.526Z,16.77
2019-03-20T08:44:36.333Z,16.11
2019-03-20T08:45:36.784Z,16.49
2019-03-20T08:46:36.299Z,16.73
2019-03-20T08:47:36.431Z,17.20
2019-03-20T08:48:36.401Z,16.53
2019-03-20T08:49:36.434Z,15.57
2019-03-20T08:50:36.282Z,15.13
2019-03-20T08:51:36.920Z,14.60
2019-03-20T08:52:36.618Z,13.46
2019-03-20T08:53:36.285Z,12.49
2019-03-20T08:54:36.269Z,12.04
2019-03-20T08:55:36.317Z,11.64
2019-03-20T08:56:36.200Z,11.44
2019-03-20T08:57:36.365Z,11.24
2019-03-20T08:58:36.301Z,11.16
2019-03-20T08:59:36.190Z,11.20
2019-03-20T09:00:36.157Z,11.10
2019-03-20T09:01:36.227Z,11.14
2019-03-20T09:02:36.132Z,11.09
2019-03-20T09:03:36.123Z,11.20
2019-03-20T09:04:37.104Z,11.17
2019-03-20T09:05:36.566Z,11.16
2019-03-20T09:06:36.591Z,11.19
2019-03-20T09:07:46.638Z,11.11
2019-03-20T09:08:37.066Z,11.21
2019-03-20T09:09:36.101Z,11.17
2019-03-20T09:10:36.594Z,10.80
2019-03-20T09:11:36.346Z,10.63
2019-03-20T09:12:36.231Z,10.56
2019-03-20T09:13:36.964Z,10.47
2019-03-20T09:14:36.031Z,10.44
2019-03-20T09:15:36.163Z,10.59
2019-03-20T09:16:36.034Z,10.92
2019-03-20T09:17:36.042Z,11.20
2019-03-20T09:18:36.065Z,11.25
2019-03-20T09:19:36.030Z,11.24
2019-03-20T09:20:35.989Z,11.31
2019-03-20T09:21:35.930Z,11.31
2019-03-20T09:22:36.119Z,11.41
2019-03-20T09:23:36.210Z,11.38
2019-03-20T09:24:35.923Z,11.28
2019-03-20T09:25:35.919Z,11.28
2019-03-20T09:26:35.879Z,11.21
2019-03-20T09:27:35.902Z,11.13
2019-03-20T09:28:35.862Z,11.11
2019-03-20T09:29:36.511Z,11.16
2019-03-20T09:30:35.838Z,11.06
2019-03-20T09:31:35.852Z,10.96
2019-03-20T09:32:35.912Z,10.73
2019-03-20T09:33:35.816Z,10.84
2019-03-20T09:34:35.820Z,11.03
2019-03-20T09:35:35.799Z,11.16
2019-03-20T09:36:43.089Z,11.32
2019-03-20T09:37:37.181Z,11.44
2019-03-20T09:38:43.341Z,11.35
2019-03-20T09:39:35.749Z,11.32
2019-03-20T09:40:35.729Z,11.25
2019-03-20T09:41:35.725Z,11.24
2019-03-20T09:42:36.096Z,11.21
2019-03-20T09:43:35.731Z,11.35
2019-03-20T09:44:35.691Z,11.59
2019-03-20T09:45:35.688Z,11.68
2019-03-20T09:46:35.734Z,11.56
2019-03-20T09:47:35.660Z,11.54
2019-03-20T09:48:35.647Z,11.68
2019-03-20T09:49:35.922Z,11.65
2019-03-20T09:50:35.792Z,11.83
2019-03-20T09:51:35.638Z,11.96
2019-03-20T09:52:35.606Z,11.94
2019-03-20T09:53:35.597Z,11.80
2019-03-20T09:54:35.612Z,11.65
2019-03-20T09:55:35.927Z,11.68
2019-03-20T09:56:35.592Z,11.70
2019-03-20T09:57:35.821Z,11.65
2019-03-20T09:58:35.625Z,11.61
2019-03-20T09:59:35.532Z,11.64
2019-03-20T10:00:35.781Z,11.61
2019-03-20T10:01:35.552Z,11.54
2019-03-20T10:02:35.630Z,11.62
2019-03-20T10:03:35.499Z,11.70
2019-03-20T10:04:35.485Z,11.93
2019-03-20T10:05:35.506Z,11.94
2019-03-20T10:06:35.459Z,11.97
2019-03-20T10:07:35.491Z,11.89
2019-03-20T10:08:35.458Z,11.99
2019-03-20T10:09:35.452Z,12.11
2019-03-20T10:10:35.610Z,12.04
2019-03-20T10:11:35.539Z,11.97
2019-03-20T10:12:35.691Z,12.02
2019-03-20T10:13:36.550Z,12.20
2019-03-20T10:14:35.557Z,12.30
2019-03-20T10:15:35.480Z,12.23
2019-03-20T10:16:35.391Z,12.08
2019-03-20T10:17:38.111Z,12.02
2019-03-20T10:18:35.330Z,11.87
2019-03-20T10:19:35.421Z,11.71
2019-03-20T10:20:35.313Z,11.72
2019-03-20T10:21:35.296Z,12.04
2019-03-20T10:22:35.284Z,12.33
2019-03-20T10:23:35.301Z,12.42
2019-03-20T10:24:35.303Z,12.45
2019-03-20T10:25:44.118Z,12.59
2019-03-20T10:26:36.272Z,12.57
2019-03-20T10:27:35.548Z,12.44
2019-03-20T10:28:35.551Z,12.52
2019-03-20T10:29:35.362Z,12.63
2019-03-20T10:30:35.316Z,12.62
2019-03-20T10:31:35.701Z,12.66
2019-03-20T10:32:35.291Z,12.66
2019-03-20T10:33:35.216Z,12.69
2019-03-20T10:34:39.365Z,12.75
2019-03-20T10:35:35.183Z,12.59
2019-03-20T10:36:35.152Z,12.57
2019-03-20T10:37:35.157Z,12.60
2019-03-20T10:38:35.201Z,12.60
2019-03-20T10:39:35.198Z,12.84
2019-03-20T10:40:35.133Z,12.81
2019-03-20T10:41:35.260Z,12.79
2019-03-20T10:42:35.150Z,12.81
2019-03-20T10:43:35.796Z,13.04
2019-03-20T10:44:35.899Z,13.20
2019-03-20T10:45:35.849Z,13.29
2019-03-20T10:46:35.038Z,13.25
2019-03-20T10:47:35.582Z,13.61
2019-03-20T10:48:35.135Z,13.73
2019-03-20T10:49:36.124Z,14.39
2019-03-20T10:50:35.639Z,14.68
2019-03-20T10:51:34.988Z,15.35
2019-03-20T10:52:35.609Z,15.86
2019-03-20T10:53:36.179Z,16.55
2019-03-20T10:54:35.741Z,17.28
2019-03-20T10:55:35.303Z,17.78
2019-03-20T10:56:35.432Z,18.07
2019-03-20T10:57:34.918Z,18.31
2019-03-20T10:58:34.914Z,18.61
2019-03-20T10:59:34.899Z,18.86
2019-03-20T11:00:34.932Z,18.91
2019-03-20T11:01:42.616Z,19.55
2019-03-20T11:02:36.018Z,19.54
2019-03-20T11:03:35.558Z,18.59
2019-03-20T11:04:35.071Z,17.99
2019-03-20T11:05:36.179Z,17.26
2019-03-20T11:06:35.148Z,16.27
2019-03-20T11:07:35.261Z,15.61
2019-03-20T11:08:34.803Z,15.09
2019-03-20T11:09:34.813Z,14.64
2019-03-20T11:10:35.144Z,14.47
2019-03-20T11:11:34.853Z,14.10
2019-03-20T11:12:34.838Z,13.83
2019-03-20T11:13:35.223Z,13.83
2019-03-20T11:14:35.626Z,13.87
2019-03-20T11:15:34.786Z,13.74
2019-03-20T11:16:34.725Z,13.76
2019-03-20T11:17:34.768Z,13.71
2019-03-20T11:18:35.086Z,13.79
2019-03-20T11:19:35.405Z,13.83
2019-03-20T11:20:36.708Z,13.76
2019-03-20T11:21:35.336Z,13.44
2019-03-20T11:22:34.718Z,13.44
2019-03-20T11:23:34.762Z,13.41
2019-03-20T11:24:34.784Z,13.41
2019-03-20T11:25:34.681Z,13.51
2019-03-20T11:26:34.661Z,13.22
2019-03-20T11:27:34.608Z,13.18
2019-03-20T11:28:35.460Z,13.07
2019-03-20T11:29:34.682Z,12.97
2019-03-20T11:30:34.649Z,12.96
2019-03-20T11:31:34.700Z,12.89
2019-03-20T11:32:34.710Z,12.84
2019-03-20T11:33:34.816Z,12.81
2019-03-20T11:34:34.664Z,12.78
2019-03-20T11:35:35.547Z,12.77
2019-03-20T11:36:34.507Z,12.74
2019-03-20T11:37:34.961Z,12.74
2019-03-20T11:38:34.526Z,12.71
2019-03-20T11:39:34.474Z,12.81
2019-03-20T11:40:34.522Z,12.78
2019-03-20T11:41:34.456Z,12.69
2019-03-20T11:42:35.167Z,12.75
2019-03-20T11:43:34.547Z,12.74
2019-03-20T11:44:34.423Z,12.75
2019-03-20T11:45:34.412Z,12.67
2019-03-20T11:46:34.406Z,12.70
2019-03-20T11:47:34.418Z,12.71
2019-03-20T11:48:34.497Z,12.66
2019-03-20T11:49:35.744Z,12.59
2019-03-20T11:50:34.364Z,12.64
2019-03-20T11:51:34.368Z,12.67
2019-03-20T11:52:34.344Z,12.63
2019-03-20T11:53:34.366Z,12.75
2019-03-20T11:54:34.317Z,12.74
2019-03-20T11:55:34.840Z,12.89
2019-03-20T11:56:34.302Z,13.02
2019-03-20T11:57:34.286Z,12.97
2019-03-20T11:58:34.279Z,12.99
2019-03-20T11:59:35.186Z,12.93
2019-03-20T12:00:34.329Z,12.81
2019-03-20T12:01:34.581Z,12.84
2019-03-20T12:02:34.381Z,12.78
2019-03-20T12:03:34.366Z,12.93
2019-03-20T12:04:34.801Z,13.04
2019-03-20T12:05:34.407Z,13.06
2019-03-20T12:06:34.610Z,13.06
2019-03-20T12:07:35.510Z,13.12
2019-03-20T12:08:34.653Z,12.97
2019-03-20T12:09:40.992Z,13.02
2019-03-20T12:10:35.418Z,13.06
2019-03-20T12:11:45.454Z,13.20
2019-03-20T12:12:35.158Z,13.29
2019-03-20T12:13:34.235Z,13.21
2019-03-20T12:14:34.272Z,13.18
2019-03-20T12:15:34.221Z,13.11
2019-03-20T12:16:34.320Z,13.00
2019-03-20T12:17:34.108Z,12.87
2019-03-20T12:18:34.081Z,12.96
2019-03-20T12:19:44.801Z,12.97
2019-03-20T12:20:35.644Z,12.93
2019-03-20T12:21:34.916Z,12.89
2019-03-20T12:22:36.045Z,12.92
2019-03-20T12:23:34.262Z,12.95
2019-03-20T12:24:34.253Z,12.99
2019-03-20T12:25:35.643Z,13.03
2019-03-20T12:26:34.095Z,12.99
2019-03-20T12:27:34.581Z,12.97
2019-03-20T12:28:34.656Z,12.99
2019-03-20T12:29:35.139Z,12.96
2019-03-20T12:30:33.939Z,12.95
2019-03-20T12:31:33.979Z,12.81
2019-03-20T12:32:36.362Z,12.82
2019-03-20T12:33:34.067Z,12.82
2019-03-20T12:34:34.543Z,12.74
2019-03-20T12:35:33.927Z,12.78
2019-03-20T12:36:34.024Z,12.60
2019-03-20T12:37:34.764Z,12.59
2019-03-20T12:38:33.891Z,12.56
2019-03-20T12:39:34.471Z,12.49
2019-03-20T12:40:34.034Z,12.51
2019-03-20T12:41:33.841Z,12.51
2019-03-20T12:42:33.934Z,12.46
2019-03-20T12:43:33.892Z,12.52
2019-03-20T12:44:33.793Z,12.54
2019-03-20T12:45:33.782Z,12.64
2019-03-20T12:46:41.545Z,12.70
2019-03-20T12:47:34.881Z,12.84
2019-03-20T12:48:33.863Z,12.95
2019-03-20T12:49:33.951Z,12.89
2019-03-20T12:50:34.037Z,13.09
2019-03-20T12:51:33.826Z,13.04
2019-03-20T12:52:33.718Z,13.04
2019-03-20T12:53:35.120Z,13.14
2019-03-20T12:54:33.718Z,13.20
2019-03-20T12:55:34.155Z,13.18
2019-03-20T12:56:33.667Z,13.12
2019-03-20T12:57:33.679Z,13.06
2019-03-20T12:58:33.641Z,13.06
2019-03-20T12:59:33.655Z,13.04
2019-03-20T13:00:34.199Z,12.97
2019-03-20T13:01:34.469Z,12.97
2019-03-20T13:02:33.630Z,12.96
2019-03-20T13:03:33.667Z,12.93
2019-03-20T13:04:33.684Z,12.84
2019-03-20T13:05:33.611Z,12.77
2019-03-20T13:06:33.617Z,12.85
2019-03-20T13:07:34.603Z,12.82
2019-03-20T13:08:33.653Z,12.84